Decoded Metar for VHHH (HONG KONG in HONG KONG) (IATA:HKG) | Meteo·Mobile Aviation Weather
aviador You're here:

VHHH Decoded Metar

HONG KONG in HONG KONG
Report Time2018-12-19 15:00:00
UTC Time2018-12-19 15:20:13
Flight Rules vfr VFR
Wind070° at 10 kt
W.Decomp.*RWY 07: 10.0 kt HW 0.3 kt RCW
W.Rank070° ranks 6
Current wind is above 070° avg. (7.2)
Visibility9999 m
Phenomena:N/A
Clouds:Few 016 Hf
Scattered 025 Hf
Expected CloudBase > 1,600 ft AGL from Temp-Dew spread
CeilingNone
Temp21°C (ISA +6)
Dew Point17°C (78% RH)
AAT19.8°C
QNH1018 hPa
Density Alt827 ft
Elevation30 ft
Report Wrong Elevation
Raw Report
METAR VHHH 191500Z 07010KT 9999 FEW016 SCT025 21/17 Q1018 NOSIG=

Extra information for VHHH:More info

Metar Taf Metar & Taf Last 4 Metars F.Rules Stats Wind Profile Meteogram Temp Stats Airport Information Weather charts Add Link Nearby VenuesMetar ALERT Operation Metar Decoded Social comments